createdAt,value
2018-07-21T00:02:14.454Z,5.10
2018-07-21T00:04:42.705Z,5.20
2018-07-21T00:07:10.983Z,5.50
2018-07-21T00:09:39.280Z,5.80
2018-07-21T00:12:07.552Z,5.70
2018-07-21T00:14:35.856Z,5.97
2018-07-21T00:17:04.172Z,5.87
2018-07-21T00:19:32.446Z,5.40
2018-07-21T00:22:00.713Z,5.80
2018-07-21T00:24:28.970Z,5.77
2018-07-21T00:26:57.249Z,5.20
2018-07-21T00:29:25.536Z,5.37
2018-07-21T00:31:53.821Z,5.27
2018-07-21T00:34:22.076Z,5.30
2018-07-21T00:36:50.360Z,5.07
2018-07-21T00:39:18.666Z,5.00
2018-07-21T00:41:46.941Z,5.20
2018-07-21T00:44:15.198Z,4.83
2018-07-21T00:46:43.483Z,4.57
2018-07-21T00:49:11.976Z,4.87
2018-07-21T00:51:40.258Z,4.87
2018-07-21T00:54:08.534Z,4.30
2018-07-21T00:56:36.808Z,5.03
2018-07-21T00:59:05.224Z,4.60
2018-07-21T01:01:33.226Z,4.30
2018-07-21T01:04:01.509Z,4.40
2018-07-21T01:06:29.793Z,4.63
2018-07-21T01:08:58.136Z,4.37
2018-07-21T01:11:26.437Z,4.23
2018-07-21T01:13:54.710Z,4.30
2018-07-21T01:16:23.008Z,4.30
2018-07-21T01:18:51.308Z,4.60
2018-07-21T01:21:19.572Z,4.30
2018-07-21T01:23:47.860Z,4.10
2018-07-21T01:26:16.120Z,4.43
2018-07-21T01:28:44.426Z,4.30
2018-07-21T01:31:12.906Z,4.03
2018-07-21T01:33:41.188Z,4.13
2018-07-21T01:36:09.517Z,4.50
2018-07-21T01:38:37.813Z,4.13
2018-07-21T01:41:06.190Z,3.93
2018-07-21T01:43:34.458Z,4.17
2018-07-21T01:46:02.735Z,4.10
2018-07-21T01:48:31.024Z,3.77
2018-07-21T01:50:59.274Z,4.07
2018-07-21T01:53:27.562Z,4.10
2018-07-21T01:55:55.824Z,4.07
2018-07-21T01:58:24.075Z,4.13
2018-07-21T02:00:52.325Z,4.27
2018-07-21T02:03:20.604Z,4.03
2018-07-21T02:05:48.853Z,4.57
2018-07-21T02:08:17.131Z,3.97
2018-07-21T02:10:45.391Z,4.30
2018-07-21T02:13:13.813Z,4.00
2018-07-21T02:15:42.100Z,4.00
2018-07-21T02:18:10.445Z,4.40
2018-07-21T02:20:38.707Z,4.33
2018-07-21T02:23:06.985Z,4.43
2018-07-21T02:25:35.285Z,4.20
2018-07-21T02:28:03.636Z,4.23
2018-07-21T02:30:31.896Z,4.30
2018-07-21T02:33:00.187Z,4.33
2018-07-21T02:35:28.462Z,4.30
2018-07-21T02:37:56.782Z,4.03
2018-07-21T02:40:25.060Z,4.37
2018-07-21T02:42:53.297Z,4.17
2018-07-21T02:45:21.564Z,4.63
2018-07-21T02:47:49.848Z,4.60
2018-07-21T02:50:18.161Z,4.43
2018-07-21T02:52:46.370Z,4.47
2018-07-21T02:55:14.644Z,4.87
2018-07-21T02:57:42.892Z,4.57
2018-07-21T03:00:11.797Z,4.40
2018-07-21T03:02:40.070Z,3.97
2018-07-21T03:05:08.393Z,4.27
2018-07-21T03:07:36.720Z,3.63
2018-07-21T03:10:05.568Z,4.00
2018-07-21T03:12:33.740Z,4.43
2018-07-21T03:15:25.170Z,4.67
2018-07-21T03:17:53.473Z,4.07
2018-07-21T03:20:21.764Z,3.70
2018-07-21T03:22:50.056Z,3.90
2018-07-21T03:25:18.326Z,4.43
2018-07-21T03:27:46.608Z,4.07
2018-07-21T03:30:15.146Z,4.30
2018-07-21T03:32:43.525Z,4.27
2018-07-21T03:35:11.764Z,3.93
2018-07-21T03:37:40.057Z,3.83
2018-07-21T03:40:08.364Z,4.10
2018-07-21T03:42:36.657Z,4.20
2018-07-21T03:45:04.960Z,4.00
2018-07-21T03:47:32.949Z,4.60
2018-07-21T03:50:01.253Z,5.37
2018-07-21T03:52:29.523Z,4.90
2018-07-21T03:54:57.863Z,4.83
2018-07-21T03:57:26.126Z,5.33
2018-07-21T03:59:54.428Z,5.23
2018-07-21T04:02:22.713Z,5.00
2018-07-21T04:04:50.975Z,4.90
2018-07-21T04:07:19.245Z,4.53
2018-07-21T04:09:47.524Z,4.70
2018-07-21T04:12:15.798Z,4.70
2018-07-21T04:14:44.065Z,5.20
2018-07-21T04:17:23.500Z,4.70
2018-07-21T04:19:51.801Z,5.20
2018-07-21T04:22:20.093Z,4.80
2018-07-21T04:24:48.380Z,4.90
2018-07-21T04:27:18.264Z,4.70
2018-07-21T04:29:46.584Z,4.93
2018-07-21T04:32:15.332Z,4.50
2018-07-21T04:34:43.825Z,4.80
2018-07-21T04:37:12.112Z,4.63
2018-07-21T04:39:40.386Z,4.70
2018-07-21T04:42:08.875Z,5.10
2018-07-21T04:44:37.567Z,5.20
2018-07-21T04:47:05.896Z,6.63
2018-07-21T04:49:34.168Z,6.80
2018-07-21T04:52:02.452Z,7.77
2018-07-21T04:54:30.709Z,6.63
2018-07-21T04:56:58.978Z,6.73
2018-07-21T04:59:27.320Z,6.80
2018-07-21T05:01:55.607Z,6.47
2018-07-21T05:04:23.869Z,6.90
2018-07-21T05:06:52.151Z,6.87
2018-07-21T05:09:20.419Z,6.90
2018-07-21T05:11:48.736Z,6.70
2018-07-21T05:14:17.032Z,6.97
2018-07-21T05:16:45.312Z,6.60
2018-07-21T05:19:13.970Z,6.90
2018-07-21T05:21:42.263Z,5.97
2018-07-21T05:24:10.555Z,6.47
2018-07-21T05:26:38.856Z,5.93
2018-07-21T05:29:07.152Z,5.90
2018-07-21T05:31:35.422Z,5.67
2018-07-21T05:34:03.761Z,6.40
2018-07-21T05:36:32.031Z,5.70
2018-07-21T05:39:00.374Z,5.87
2018-07-21T05:41:28.655Z,5.97
2018-07-21T05:43:56.910Z,5.33
2018-07-21T05:46:25.200Z,6.23
2018-07-21T05:48:53.464Z,6.43
2018-07-21T05:51:21.740Z,6.03
2018-07-21T05:53:50.047Z,6.53
2018-07-21T05:56:18.369Z,6.57
2018-07-21T05:58:46.655Z,6.33
2018-07-21T06:01:14.927Z,6.80
2018-07-21T06:03:43.186Z,7.17
2018-07-21T06:06:11.492Z,7.13
2018-07-21T06:08:39.826Z,7.30
2018-07-21T06:11:08.269Z,7.23
2018-07-21T06:13:36.641Z,6.90
2018-07-21T06:16:05.083Z,6.17
2018-07-21T06:18:33.413Z,6.23
2018-07-21T06:21:01.750Z,5.77
2018-07-21T06:23:30.209Z,5.63
2018-07-21T06:25:58.530Z,5.87
2018-07-21T06:28:27.496Z,6.33
2018-07-21T06:30:55.756Z,5.90
2018-07-21T06:33:24.289Z,5.60
2018-07-21T06:35:52.569Z,5.23
2018-07-21T06:38:20.973Z,5.53
2018-07-21T06:40:49.271Z,5.73
2018-07-21T06:43:17.631Z,5.33
2018-07-21T06:45:45.838Z,5.53
2018-07-21T06:48:14.129Z,5.83
2018-07-21T06:50:42.424Z,6.47
2018-07-21T06:53:10.723Z,6.27
2018-07-21T06:55:38.985Z,6.07
2018-07-21T06:58:08.160Z,5.90
2018-07-21T07:00:36.439Z,6.47
2018-07-21T07:03:04.768Z,6.90
2018-07-21T07:05:33.052Z,6.97
2018-07-21T07:08:01.324Z,6.53
2018-07-21T07:10:29.605Z,7.03
2018-07-21T07:12:57.908Z,7.30
2018-07-21T07:15:25.946Z,7.00
2018-07-21T07:17:54.640Z,6.70
2018-07-21T07:20:22.935Z,7.17
2018-07-21T07:22:51.221Z,7.80
2018-07-21T07:25:19.519Z,7.80
2018-07-21T07:27:47.881Z,8.17
2018-07-21T07:30:16.124Z,8.53
2018-07-21T07:32:44.388Z,8.07
2018-07-21T07:35:12.739Z,8.90
2018-07-21T07:37:40.979Z,9.27
2018-07-21T07:40:09.271Z,8.23
2018-07-21T07:42:37.584Z,8.67
2018-07-21T07:45:05.992Z,7.67
2018-07-21T07:47:34.284Z,8.03
2018-07-21T07:50:02.816Z,7.10
2018-07-21T07:52:31.093Z,7.70
2018-07-21T07:54:59.355Z,7.33
2018-07-21T07:57:27.649Z,7.40
2018-07-21T07:59:55.951Z,8.03
2018-07-21T08:02:24.248Z,7.13
2018-07-21T08:04:52.514Z,7.00
2018-07-21T08:07:20.868Z,6.97
2018-07-21T08:09:49.151Z,7.30
2018-07-21T08:12:17.451Z,7.43
2018-07-21T08:14:45.761Z,8.37
2018-07-21T08:17:14.026Z,8.30
2018-07-21T08:19:42.329Z,8.20
2018-07-21T08:22:10.600Z,8.87
2018-07-21T08:24:38.907Z,8.10
2018-07-21T08:27:07.228Z,8.53
2018-07-21T08:29:35.536Z,8.53
2018-07-21T08:32:03.805Z,9.00
2018-07-21T08:34:32.174Z,9.00
2018-07-21T08:37:00.409Z,8.73
2018-07-21T08:39:28.669Z,8.67
2018-07-21T08:44:31.692Z,8.70
2018-07-21T08:46:59.990Z,8.40
2018-07-21T08:49:28.300Z,9.30
2018-07-21T08:51:56.597Z,9.10
2018-07-21T08:54:24.883Z,9.00
2018-07-21T08:56:53.143Z,8.60
2018-07-21T08:59:21.435Z,10.10
2018-07-21T09:01:49.744Z,9.10
2018-07-21T09:04:18.038Z,9.53
2018-07-21T09:06:46.328Z,10.27
2018-07-21T09:09:14.626Z,9.27
2018-07-21T09:11:42.931Z,9.20
2018-07-21T09:14:11.259Z,9.13
2018-07-21T09:16:39.531Z,9.50
2018-07-21T09:19:07.866Z,9.67
2018-07-21T09:21:36.195Z,10.47
2018-07-21T09:24:04.468Z,10.03
2018-07-21T09:26:32.788Z,9.97
2018-07-21T09:29:01.099Z,10.53
2018-07-21T09:31:29.405Z,10.03
2018-07-21T09:33:57.709Z,10.97
2018-07-21T09:36:25.975Z,11.13
2018-07-21T09:38:54.281Z,10.53
2018-07-21T09:41:22.572Z,11.30
2018-07-21T09:43:50.857Z,11.27
2018-07-21T09:46:19.160Z,11.10
2018-07-21T09:48:47.472Z,11.40
2018-07-21T09:51:15.771Z,10.77
2018-07-21T09:53:44.061Z,10.87
2018-07-21T09:56:12.393Z,11.63
2018-07-21T09:58:40.713Z,12.40
2018-07-21T10:01:09.000Z,12.00
2018-07-21T10:03:37.293Z,12.03
2018-07-21T10:06:05.608Z,12.30
2018-07-21T10:08:33.899Z,11.97
2018-07-21T10:11:02.183Z,12.00
2018-07-21T10:13:30.458Z,11.13
2018-07-21T10:15:58.756Z,11.63
2018-07-21T10:18:27.068Z,12.03
2018-07-21T10:20:55.401Z,10.17
2018-07-21T10:23:23.667Z,11.40
2018-07-21T10:25:57.450Z,11.07
2018-07-21T10:28:31.192Z,11.50
2018-07-21T10:30:59.471Z,11.13
2018-07-21T10:33:27.799Z,11.43
2018-07-21T10:35:56.062Z,11.47
2018-07-21T10:38:24.075Z,11.80
2018-07-21T10:40:52.352Z,10.07
2018-07-21T10:43:20.646Z,9.93
2018-07-21T10:45:48.951Z,9.10
2018-07-21T10:48:17.259Z,9.73
2018-07-21T10:50:45.634Z,10.37
2018-07-21T10:53:14.004Z,9.93
2018-07-21T10:55:42.303Z,9.90
2018-07-21T10:58:10.609Z,10.33
2018-07-21T11:00:38.904Z,10.03
2018-07-21T11:03:16.406Z,10.07
2018-07-21T11:05:44.685Z,10.97
2018-07-21T11:08:12.695Z,10.20
2018-07-21T11:10:41.027Z,10.50
2018-07-21T11:13:09.311Z,10.20
2018-07-21T11:15:37.708Z,10.70
2018-07-21T11:18:05.972Z,10.03
2018-07-21T11:20:34.344Z,10.17
2018-07-21T11:23:02.673Z,10.83
2018-07-21T11:25:30.972Z,9.70
2018-07-21T11:27:59.267Z,10.30
2018-07-21T11:30:27.565Z,11.90
2018-07-21T11:32:55.862Z,11.70
2018-07-21T11:35:24.242Z,10.03
2018-07-21T11:37:52.438Z,9.87
2018-07-21T11:40:20.825Z,9.50
2018-07-21T11:42:49.108Z,9.33
2018-07-21T11:45:17.411Z,10.07
2018-07-21T11:47:45.693Z,9.80
2018-07-21T11:50:14.001Z,13.60
2018-07-21T11:52:42.277Z,11.63
2018-07-21T11:55:10.582Z,9.70
2018-07-21T11:57:38.863Z,9.83
2018-07-21T12:00:07.269Z,10.17
2018-07-21T12:02:35.560Z,11.17
2018-07-21T12:05:03.913Z,10.67
2018-07-21T12:07:32.198Z,9.70
2018-07-21T12:10:00.476Z,9.93
2018-07-21T12:12:28.809Z,10.73
2018-07-21T12:14:57.095Z,10.67
2018-07-21T12:17:25.427Z,10.37
2018-07-21T12:19:53.750Z,10.90
2018-07-21T12:22:22.060Z,10.60
2018-07-21T12:24:50.351Z,9.80
2018-07-21T12:27:18.737Z,9.93
2018-07-21T12:29:47.019Z,9.43
2018-07-21T12:32:15.689Z,10.33
2018-07-21T12:34:44.109Z,9.33
2018-07-21T12:37:12.396Z,10.00
2018-07-21T12:39:41.950Z,10.50
2018-07-21T12:42:10.269Z,10.67
2018-07-21T12:44:38.584Z,11.30
2018-07-21T12:47:06.937Z,11.23
2018-07-21T12:49:35.231Z,13.23
2018-07-21T12:52:04.503Z,12.03
2018-07-21T12:54:33.048Z,12.37
2018-07-21T12:57:01.450Z,12.30
2018-07-21T12:59:29.762Z,13.00
2018-07-21T13:01:58.077Z,12.33
2018-07-21T13:04:26.397Z,12.40
2018-07-21T13:06:54.712Z,12.10
2018-07-21T13:09:23.104Z,12.97
2018-07-21T13:11:51.594Z,12.23
2018-07-21T13:14:20.602Z,13.60
2018-07-21T13:16:48.956Z,13.77
2018-07-21T13:19:17.238Z,13.53
2018-07-21T13:21:45.682Z,13.17
2018-07-21T13:24:14.006Z,13.00
2018-07-21T13:26:42.359Z,13.70
2018-07-21T13:29:10.675Z,14.10
2018-07-21T13:31:39.007Z,12.60
2018-07-21T13:34:07.791Z,13.20
2018-07-21T13:36:36.117Z,12.50
2018-07-21T13:39:07.604Z,12.50
2018-07-21T13:41:35.924Z,12.20
2018-07-21T13:44:04.259Z,12.77
2018-07-21T13:46:32.677Z,13.33
2018-07-21T13:49:01.029Z,12.50
2018-07-21T13:51:30.483Z,13.43
2018-07-21T13:53:58.882Z,13.60
2018-07-21T13:56:27.799Z,14.23
2018-07-21T13:58:56.124Z,13.70
2018-07-21T14:01:24.476Z,15.03
2018-07-21T14:03:52.793Z,14.67
2018-07-21T14:06:21.097Z,14.50
2018-07-21T14:08:49.424Z,13.10
2018-07-21T14:11:17.771Z,13.20
2018-07-21T14:13:46.101Z,13.30
2018-07-21T14:16:14.486Z,13.10
2018-07-21T14:18:42.810Z,12.37
2018-07-21T14:21:11.136Z,13.03
2018-07-21T14:23:39.468Z,12.70
2018-07-21T14:26:07.907Z,12.60
2018-07-21T14:28:36.280Z,11.80
2018-07-21T14:31:04.584Z,12.07
2018-07-21T14:33:32.862Z,12.07
2018-07-21T14:36:01.270Z,11.83
2018-07-21T14:38:29.496Z,11.73
2018-07-21T14:40:57.810Z,13.63
2018-07-21T14:43:26.099Z,13.47
2018-07-21T14:45:54.380Z,13.17
2018-07-21T14:48:22.681Z,12.43
2018-07-21T14:50:50.971Z,13.07
2018-07-21T14:53:19.275Z,12.60
2018-07-21T14:55:47.556Z,12.37
2018-07-21T14:58:15.846Z,12.57
2018-07-21T15:00:44.198Z,11.10
2018-07-21T15:03:12.485Z,11.93
2018-07-21T15:05:40.811Z,10.97
2018-07-21T15:08:09.133Z,10.70
2018-07-21T15:10:37.623Z,10.50
2018-07-21T15:13:05.924Z,11.07
2018-07-21T15:15:34.272Z,10.30
2018-07-21T15:18:02.559Z,10.23
2018-07-21T15:20:30.841Z,10.00
2018-07-21T15:22:59.108Z,8.87
2018-07-21T15:25:27.395Z,9.63
2018-07-21T15:27:55.698Z,9.90
2018-07-21T15:30:23.988Z,10.13
2018-07-21T15:32:52.267Z,8.70
2018-07-21T15:35:20.552Z,8.13
2018-07-21T15:37:48.818Z,8.67
2018-07-21T15:40:17.113Z,8.57
2018-07-21T15:42:45.385Z,8.90
2018-07-21T15:45:13.691Z,9.67
2018-07-21T15:47:42.013Z,9.43
2018-07-21T15:50:10.275Z,9.00
2018-07-21T15:52:38.551Z,9.47
2018-07-21T15:55:06.852Z,10.10
2018-07-21T15:57:35.134Z,10.37
2018-07-21T16:00:03.483Z,10.10
2018-07-21T16:02:31.793Z,9.23
2018-07-21T16:05:00.082Z,9.33
2018-07-21T16:07:28.371Z,8.83
2018-07-21T16:09:56.646Z,10.00
2018-07-21T16:12:24.922Z,9.90
2018-07-21T16:14:53.258Z,10.03
2018-07-21T16:17:21.566Z,9.80
2018-07-21T16:19:49.826Z,9.00
2018-07-21T16:22:18.180Z,8.17
2018-07-21T16:24:46.468Z,9.07
2018-07-21T16:27:14.813Z,8.83
2018-07-21T16:29:43.109Z,9.87
2018-07-21T16:32:12.476Z,9.43
2018-07-21T16:34:41.758Z,10.10
2018-07-21T16:37:10.974Z,9.40
2018-07-21T16:39:39.666Z,10.20
2018-07-21T16:42:08.016Z,9.80
2018-07-21T16:44:36.315Z,9.10
2018-07-21T16:47:04.787Z,9.30
2018-07-21T16:49:33.101Z,9.80
2018-07-21T16:52:01.370Z,10.20
2018-07-21T16:54:29.653Z,10.37
2018-07-21T16:56:58.016Z,11.13
2018-07-21T16:59:26.356Z,10.50
2018-07-21T17:01:54.736Z,10.30
2018-07-21T17:04:23.161Z,10.73
2018-07-21T17:06:51.451Z,10.87
2018-07-21T17:09:20.674Z,11.23
2018-07-21T17:11:48.963Z,10.67
2018-07-21T17:14:17.344Z,10.47
2018-07-21T17:16:45.696Z,11.33
2018-07-21T17:19:13.984Z,10.30
2018-07-21T17:21:42.271Z,10.67
2018-07-21T17:24:10.585Z,10.33
2018-07-21T17:26:38.943Z,10.70
2018-07-21T17:29:07.257Z,11.10
2018-07-21T17:31:35.612Z,11.00
2018-07-21T17:34:04.010Z,10.50
2018-07-21T17:36:32.374Z,10.40
2018-07-21T17:39:00.706Z,10.37
2018-07-21T17:41:29.006Z,9.87
2018-07-21T17:43:57.048Z,10.50
2018-07-21T17:46:25.388Z,10.13
2018-07-21T17:48:53.745Z,10.30
2018-07-21T17:51:22.143Z,10.80
2018-07-21T17:53:50.615Z,10.27
2018-07-21T17:56:19.084Z,10.70
2018-07-21T17:58:47.426Z,11.07
2018-07-21T18:01:15.769Z,10.97
2018-07-21T18:03:44.144Z,10.80
2018-07-21T18:06:12.620Z,11.30
2018-07-21T18:08:40.997Z,11.73
2018-07-21T18:11:09.392Z,10.90
2018-07-21T18:13:37.720Z,10.47
2018-07-21T18:16:06.055Z,11.30
2018-07-21T18:18:34.391Z,10.33
2018-07-21T18:21:02.729Z,9.47
2018-07-21T18:23:31.056Z,11.40
2018-07-21T18:25:59.446Z,10.70
2018-07-21T18:28:27.813Z,10.17
2018-07-21T18:30:56.241Z,10.27
2018-07-21T18:33:24.580Z,10.87
2018-07-21T18:35:52.888Z,11.57
2018-07-21T18:38:21.200Z,11.10
2018-07-21T18:40:49.480Z,11.60
2018-07-21T18:43:17.906Z,12.87
2018-07-21T18:45:46.388Z,11.67
2018-07-21T18:48:14.906Z,13.17
2018-07-21T18:50:43.272Z,13.27
2018-07-21T18:53:11.595Z,13.57
2018-07-21T18:55:40.023Z,13.17
2018-07-21T18:58:08.393Z,12.50
2018-07-21T19:00:36.729Z,12.03
2018-07-21T19:03:05.094Z,12.47
2018-07-21T19:05:33.433Z,12.67
2018-07-21T19:08:01.799Z,11.50
2018-07-21T19:10:30.177Z,12.60
2018-07-21T19:12:58.529Z,12.90
2018-07-21T19:15:32.331Z,13.27
2018-07-21T19:18:00.804Z,14.37
2018-07-21T19:20:34.508Z,13.90
2018-07-21T19:23:02.916Z,13.63
2018-07-21T19:25:36.667Z,14.70
2018-07-21T19:28:04.989Z,13.47
2018-07-21T19:30:33.377Z,14.70
2018-07-21T19:33:01.811Z,14.60
2018-07-21T19:35:31.058Z,13.70
2018-07-21T19:37:59.344Z,14.50
2018-07-21T19:40:27.696Z,15.20
2018-07-21T19:42:55.974Z,14.40
2018-07-21T19:45:24.269Z,14.73
2018-07-21T19:47:52.639Z,15.73
2018-07-21T19:50:20.897Z,15.67
2018-07-21T19:52:49.219Z,15.77
2018-07-21T19:55:17.581Z,16.10
2018-07-21T19:57:45.888Z,16.20
2018-07-21T20:00:14.199Z,15.93
2018-07-21T20:02:42.531Z,16.47
2018-07-21T20:05:10.856Z,17.30
2018-07-21T20:07:39.252Z,16.10
2018-07-21T20:10:07.674Z,17.57
2018-07-21T20:12:36.028Z,17.67
2018-07-21T20:15:04.458Z,17.97
2018-07-21T20:17:32.774Z,17.97
2018-07-21T20:20:01.029Z,17.47
2018-07-21T20:22:29.424Z,17.43
2018-07-21T20:24:58.416Z,16.80
2018-07-21T20:27:26.835Z,16.30
2018-07-21T20:29:55.189Z,16.07
2018-07-21T20:32:23.592Z,16.20
2018-07-21T20:34:51.928Z,15.10
2018-07-21T20:37:20.336Z,14.23
2018-07-21T20:39:48.715Z,13.67
2018-07-21T20:42:17.099Z,13.70
2018-07-21T20:44:45.492Z,13.80
2018-07-21T20:47:13.811Z,14.13
2018-07-21T20:49:42.231Z,15.63
2018-07-21T20:52:10.708Z,14.10
2018-07-21T20:54:39.085Z,12.90
2018-07-21T20:57:07.573Z,14.40
2018-07-21T20:59:35.839Z,13.93
2018-07-21T21:02:04.256Z,14.30
2018-07-21T21:04:32.589Z,13.53
2018-07-21T21:07:00.997Z,14.00
2018-07-21T21:09:29.338Z,13.10
2018-07-21T21:11:57.728Z,13.43
2018-07-21T21:14:26.103Z,13.00
2018-07-21T21:16:54.452Z,14.40
2018-07-21T21:19:22.740Z,15.50
2018-07-21T21:21:51.031Z,20.90
2018-07-21T21:24:19.341Z,18.43
2018-07-21T21:26:47.733Z,19.10
2018-07-21T21:29:16.042Z,17.57
2018-07-21T21:31:44.361Z,14.43
2018-07-21T21:34:12.683Z,14.67
2018-07-21T21:36:40.998Z,13.63
2018-07-21T21:39:11.124Z,13.83
2018-07-21T21:41:39.514Z,12.67
2018-07-21T21:44:07.994Z,12.70
2018-07-21T21:46:36.285Z,13.90
2018-07-21T21:49:04.586Z,14.83
2018-07-21T21:51:32.860Z,15.70
2018-07-21T21:54:01.236Z,15.73
2018-07-21T21:56:29.763Z,15.17
2018-07-21T21:58:58.056Z,15.00
2018-07-21T22:01:26.360Z,15.37
2018-07-21T22:03:54.652Z,16.70
2018-07-21T22:06:22.928Z,15.40
2018-07-21T22:08:51.233Z,14.23
2018-07-21T22:11:19.515Z,14.37
2018-07-21T22:13:47.814Z,15.10
2018-07-21T22:16:16.076Z,14.37
2018-07-21T22:18:44.375Z,15.20
2018-07-21T22:21:12.629Z,14.57
2018-07-21T22:23:40.955Z,16.47
2018-07-21T22:26:09.237Z,14.70
2018-07-21T22:28:37.561Z,15.33
2018-07-21T22:31:05.903Z,14.93
2018-07-21T22:33:34.255Z,15.00
2018-07-21T22:36:02.540Z,14.23
2018-07-21T22:38:30.840Z,15.00
2018-07-21T22:40:59.190Z,13.87
2018-07-21T22:43:27.487Z,13.00
2018-07-21T22:45:55.807Z,13.77
2018-07-21T22:48:24.096Z,13.33
2018-07-21T22:50:52.426Z,13.23
2018-07-21T22:53:20.720Z,14.00
2018-07-21T22:55:48.980Z,14.53
2018-07-21T22:58:17.286Z,14.27
2018-07-21T23:00:45.584Z,14.17
2018-07-21T23:03:13.891Z,14.93
2018-07-21T23:05:42.182Z,15.70
2018-07-21T23:08:10.489Z,17.57
2018-07-21T23:10:38.773Z,16.63
2018-07-21T23:13:07.519Z,18.00
2018-07-21T23:15:35.858Z,18.23
2018-07-21T23:18:04.131Z,18.63
2018-07-21T23:20:32.416Z,18.07
2018-07-21T23:23:00.695Z,19.37
2018-07-21T23:25:28.977Z,19.47
2018-07-21T23:27:57.287Z,19.90
2018-07-21T23:30:25.605Z,20.67
2018-07-21T23:32:53.935Z,19.73
2018-07-21T23:35:22.273Z,20.53
2018-07-21T23:37:50.578Z,21.73
2018-07-21T23:40:18.910Z,21.83
2018-07-21T23:42:47.230Z,21.07
2018-07-21T23:45:15.538Z,21.40
2018-07-21T23:47:43.875Z,21.47
2018-07-21T23:50:12.186Z,21.17
2018-07-21T23:52:40.499Z,20.93
2018-07-21T23:55:09.213Z,20.90
2018-07-21T23:57:38.025Z,21.63
